<?xml version="1.0" encoding="ISO-8859-1" standalone="yes"?>
<gpx
  version="1.1"
  creator="Touratech QV 4.0.108 Power User - http://www.ttqv.com"
  xmlns:xsi="http://www.w3.org/2001/XMLSchema-instance"  xmlns:topografix="http://www.topografix.com/GPX/Private/TopoGrafix/0/1"
  xmlns="http://www.topografix.com/GPX/1/1"
  xsi:schemaLocation="http://www.topografix.com/GPX/1/1 http://www.topografix.com/GPX/1/1/gpx.xsd">
<metadata>
  <time>2008-11-19T16:59:10Z</time>
  <bounds minlat="35.04737" minlon="32.325315" maxlat="35.060335" maxlon="32.34935833"/>
</metadata>
<trk>
  <name>Track 08-11-18 13-00</name>
  <cmt>Track imported from Track 08-11-18 13-00
Import Date: 19.11.2008 18:53:01</cmt>
  <trkseg>
    <trkpt lat="35.05241833" lon="32.34935833">
    <ele>60</ele>
    <time>2008-11-18T11:01:23Z</time>
    </trkpt>
    <trkpt lat="35.052395" lon="32.34933667">
    <ele>68</ele>
    <time>2008-11-18T11:01:49Z</time>
    </trkpt>
    <trkpt lat="35.052445" lon="32.34928333">
    <ele>70</ele>
    <time>2008-11-18T11:02:01Z</time>
    </trkpt>
    <trkpt lat="35.05251833" lon="32.34905167">
    <ele>74</ele>
    <time>2008-11-18T11:02:15Z</time>
    </trkpt>
    <trkpt lat="35.05258167" lon="32.34887167">
    <ele>61</ele>
    <time>2008-11-18T11:02:27Z</time>
    </trkpt>
    <trkpt lat="35.05264" lon="32.34866">
    <ele>64</ele>
    <time>2008-11-18T11:02:41Z</time>
    </trkpt>
    <trkpt lat="35.05267" lon="32.34845">
    <ele>63</ele>
    <time>2008-11-18T11:02:54Z</time>
    </trkpt>
    <trkpt lat="35.05272667" lon="32.34821167">
    <ele>67</ele>
    <time>2008-11-18T11:03:07Z</time>
    </trkpt>
    <trkpt lat="35.05269667" lon="32.34803167">
    <ele>63</ele>
    <time>2008-11-18T11:03:20Z</time>
    </trkpt>
    <trkpt lat="35.05264" lon="32.34789667">
    <ele>59</ele>
    <time>2008-11-18T11:03:31Z</time>
    </trkpt>
    <trkpt lat="35.05261333" lon="32.34781333">
    <ele>63</ele>
    <time>2008-11-18T11:03:43Z</time>
    </trkpt>
    <trkpt lat="35.05262" lon="32.34767833">
    <ele>61</ele>
    <time>2008-11-18T11:03:54Z</time>
    </trkpt>
    <trkpt lat="35.052605" lon="32.34749">
    <ele>72</ele>
    <time>2008-11-18T11:04:07Z</time>
    </trkpt>
    <trkpt lat="35.05261333" lon="32.34726333">
    <ele>82</ele>
    <time>2008-11-18T11:04:20Z</time>
    </trkpt>
    <trkpt lat="35.05266167" lon="32.347105">
    <ele>90</ele>
    <time>2008-11-18T11:04:34Z</time>
    </trkpt>
    <trkpt lat="35.05276833" lon="32.346905">
    <ele>95</ele>
    <time>2008-11-18T11:04:47Z</time>
    </trkpt>
    <trkpt lat="35.05284" lon="32.34673">
    <ele>94</ele>
    <time>2008-11-18T11:05:00Z</time>
    </trkpt>
    <trkpt lat="35.05292333" lon="32.34653833">
    <ele>102</ele>
    <time>2008-11-18T11:05:13Z</time>
    </trkpt>
    <trkpt lat="35.05285167" lon="32.34653167">
    <ele>109</ele>
    <time>2008-11-18T11:05:25Z</time>
    </trkpt>
    <trkpt lat="35.05274" lon="32.34669667">
    <ele>113</ele>
    <time>2008-11-18T11:05:38Z</time>
    </trkpt>
    <trkpt lat="35.05264" lon="32.346845">
    <ele>111</ele>
    <time>2008-11-18T11:05:51Z</time>
    </trkpt>
    <trkpt lat="35.05251833" lon="32.34697167">
    <ele>117</ele>
    <time>2008-11-18T11:06:04Z</time>
    </trkpt>
    <trkpt lat="35.05250167" lon="32.34702333">
    <ele>120</ele>
    <time>2008-11-18T11:06:17Z</time>
    </trkpt>
    <trkpt lat="35.052355" lon="32.34717333">
    <ele>125</ele>
    <time>2008-11-18T11:06:32Z</time>
    </trkpt>
    <trkpt lat="35.05223" lon="32.34731167">
    <ele>116</ele>
    <time>2008-11-18T11:06:45Z</time>
    </trkpt>
    <trkpt lat="35.05215333" lon="32.34742">
    <ele>110</ele>
    <time>2008-11-18T11:06:57Z</time>
    </trkpt>
    <trkpt lat="35.05205333" lon="32.34751333">
    <ele>115</ele>
    <time>2008-11-18T11:07:10Z</time>
    </trkpt>
    <trkpt lat="35.05197167" lon="32.34739">
    <ele>108</ele>
    <time>2008-11-18T11:07:22Z</time>
    </trkpt>
    <trkpt lat="35.05208667" lon="32.34723833">
    <ele>119</ele>
    <time>2008-11-18T11:07:35Z</time>
    </trkpt>
    <trkpt lat="35.05221167" lon="32.34701667">
    <ele>112</ele>
    <time>2008-11-18T11:07:48Z</time>
    </trkpt>
    <trkpt lat="35.05224333" lon="32.34688667">
    <ele>110</ele>
    <time>2008-11-18T11:08:00Z</time>
    </trkpt>
    <trkpt lat="35.05230667" lon="32.34678833">
    <ele>119</ele>
    <time>2008-11-18T11:08:12Z</time>
    </trkpt>
    <trkpt lat="35.05233667" lon="32.346695">
    <ele>122</ele>
    <time>2008-11-18T11:08:23Z</time>
    </trkpt>
    <trkpt lat="35.05239" lon="32.346605">
    <ele>114</ele>
    <time>2008-11-18T11:08:35Z</time>
    </trkpt>
    <trkpt lat="35.05235667" lon="32.346665">
    <ele>128</ele>
    <time>2008-11-18T11:08:48Z</time>
    </trkpt>
    <trkpt lat="35.0523" lon="32.34669">
    <ele>134</ele>
    <time>2008-11-18T11:09:11Z</time>
    </trkpt>
    <trkpt lat="35.05226333" lon="32.34672">
    <ele>136</ele>
    <time>2008-11-18T11:09:24Z</time>
    </trkpt>
    <trkpt lat="35.05221333" lon="32.34679833">
    <ele>131</ele>
    <time>2008-11-18T11:09:36Z</time>
    </trkpt>
    <trkpt lat="35.05218833" lon="32.34685">
    <ele>132</ele>
    <time>2008-11-18T11:09:47Z</time>
    </trkpt>
    <trkpt lat="35.05214333" lon="32.34689667">
    <ele>133</ele>
    <time>2008-11-18T11:10:01Z</time>
    </trkpt>
    <trkpt lat="35.052055" lon="32.34696167">
    <ele>142</ele>
    <time>2008-11-18T11:10:13Z</time>
    </trkpt>
    <trkpt lat="35.05197" lon="32.347045">
    <ele>139</ele>
    <time>2008-11-18T11:10:25Z</time>
    </trkpt>
    <trkpt lat="35.05189833" lon="32.34716">
    <ele>142</ele>
    <time>2008-11-18T11:10:36Z</time>
    </trkpt>
    <trkpt lat="35.05184333" lon="32.347205">
    <ele>143</ele>
    <time>2008-11-18T11:10:49Z</time>
    </trkpt>
    <trkpt lat="35.051825" lon="32.34726">
    <ele>143</ele>
    <time>2008-11-18T11:11:04Z</time>
    </trkpt>
    <trkpt lat="35.05179333" lon="32.347465">
    <ele>125</ele>
    <time>2008-11-18T11:11:17Z</time>
    </trkpt>
    <trkpt lat="35.05173167" lon="32.34776833">
    <ele>136</ele>
    <time>2008-11-18T11:11:29Z</time>
    </trkpt>
    <trkpt lat="35.05169" lon="32.347855">
    <ele>149</ele>
    <time>2008-11-18T11:11:40Z</time>
    </trkpt>
    <trkpt lat="35.05162167" lon="32.34797667">
    <ele>153</ele>
    <time>2008-11-18T11:11:52Z</time>
    </trkpt>
    <trkpt lat="35.05157" lon="32.34804167">
    <ele>159</ele>
    <time>2008-11-18T11:12:19Z</time>
    </trkpt>
    <trkpt lat="35.05150333" lon="32.348065">
    <ele>159</ele>
    <time>2008-11-18T11:12:42Z</time>
    </trkpt>
    <trkpt lat="35.05147833" lon="32.34812333">
    <ele>159</ele>
    <time>2008-11-18T11:12:54Z</time>
    </trkpt>
    <trkpt lat="35.05146333" lon="32.348035">
    <ele>150</ele>
    <time>2008-11-18T11:13:31Z</time>
    </trkpt>
    <trkpt lat="35.05143167" lon="32.347985">
    <ele>153</ele>
    <time>2008-11-18T11:13:46Z</time>
    </trkpt>
    <trkpt lat="35.05138667" lon="32.34779333">
    <ele>151</ele>
    <time>2008-11-18T11:13:58Z</time>
    </trkpt>
    <trkpt lat="35.05134833" lon="32.347695">
    <ele>141</ele>
    <time>2008-11-18T11:14:10Z</time>
    </trkpt>
    <trkpt lat="35.05117833" lon="32.34760333">
    <ele>143</ele>
    <time>2008-11-18T11:14:24Z</time>
    </trkpt>
    <trkpt lat="35.05108667" lon="32.34742167">
    <ele>150</ele>
    <time>2008-11-18T11:14:38Z</time>
    </trkpt>
    <trkpt lat="35.05095833" lon="32.34732">
    <ele>150</ele>
    <time>2008-11-18T11:14:50Z</time>
    </trkpt>
    <trkpt lat="35.0508" lon="32.34725833">
    <ele>144</ele>
    <time>2008-11-18T11:15:03Z</time>
    </trkpt>
    <trkpt lat="35.05070833" lon="32.34711167">
    <ele>154</ele>
    <time>2008-11-18T11:15:15Z</time>
    </trkpt>
    <trkpt lat="35.05059833" lon="32.34702833">
    <ele>147</ele>
    <time>2008-11-18T11:15:28Z</time>
    </trkpt>
    <trkpt lat="35.05050667" lon="32.34689833">
    <ele>156</ele>
    <time>2008-11-18T11:15:39Z</time>
    </trkpt>
    <trkpt lat="35.05038333" lon="32.34674833">
    <ele>160</ele>
    <time>2008-11-18T11:15:54Z</time>
    </trkpt>
    <trkpt lat="35.05031833" lon="32.34662167">
    <ele>154</ele>
    <time>2008-11-18T11:16:05Z</time>
    </trkpt>
    <trkpt lat="35.05025167" lon="32.34649333">
    <ele>163</ele>
    <time>2008-11-18T11:16:17Z</time>
    </trkpt>
    <trkpt lat="35.05025667" lon="32.34633833">
    <ele>165</ele>
    <time>2008-11-18T11:16:30Z</time>
    </trkpt>
    <trkpt lat="35.05028167" lon="32.346215">
    <ele>166</ele>
    <time>2008-11-18T11:16:41Z</time>
    </trkpt>
    <trkpt lat="35.05024167" lon="32.34612">
    <ele>168</ele>
    <time>2008-11-18T11:16:53Z</time>
    </trkpt>
    <trkpt lat="35.05019667" lon="32.34599167">
    <ele>178</ele>
    <time>2008-11-18T11:17:06Z</time>
    </trkpt>
    <trkpt lat="35.05013333" lon="32.34574">
    <ele>186</ele>
    <time>2008-11-18T11:17:18Z</time>
    </trkpt>
    <trkpt lat="35.05001" lon="32.34557167">
    <ele>179</ele>
    <time>2008-11-18T11:17:31Z</time>
    </trkpt>
    <trkpt lat="35.049995" lon="32.34536">
    <ele>179</ele>
    <time>2008-11-18T11:17:43Z</time>
    </trkpt>
    <trkpt lat="35.04990667" lon="32.34514333">
    <ele>158</ele>
    <time>2008-11-18T11:17:56Z</time>
    </trkpt>
    <trkpt lat="35.04987667" lon="32.34509833">
    <ele>162</ele>
    <time>2008-11-18T11:18:10Z</time>
    </trkpt>
    <trkpt lat="35.04984333" lon="32.34499833">
    <ele>178</ele>
    <time>2008-11-18T11:18:22Z</time>
    </trkpt>
    <trkpt lat="35.04985667" lon="32.34486667">
    <ele>174</ele>
    <time>2008-11-18T11:18:36Z</time>
    </trkpt>
    <trkpt lat="35.049835" lon="32.34480667">
    <ele>174</ele>
    <time>2008-11-18T11:18:49Z</time>
    </trkpt>
    <trkpt lat="35.04979" lon="32.34469333">
    <ele>192</ele>
    <time>2008-11-18T11:19:02Z</time>
    </trkpt>
    <trkpt lat="35.04976667" lon="32.34451667">
    <ele>213</ele>
    <time>2008-11-18T11:19:13Z</time>
    </trkpt>
    <trkpt lat="35.04968333" lon="32.34422">
    <ele>211</ele>
    <time>2008-11-18T11:19:27Z</time>
    </trkpt>
    <trkpt lat="35.04963833" lon="32.34409333">
    <ele>215</ele>
    <time>2008-11-18T11:19:41Z</time>
    </trkpt>
    <trkpt lat="35.04962167" lon="32.34402667">
    <ele>212</ele>
    <time>2008-11-18T11:19:52Z</time>
    </trkpt>
    <trkpt lat="35.04951333" lon="32.343845">
    <ele>217</ele>
    <time>2008-11-18T11:20:04Z</time>
    </trkpt>
    <trkpt lat="35.04943167" lon="32.34367333">
    <ele>214</ele>
    <time>2008-11-18T11:20:16Z</time>
    </trkpt>
    <trkpt lat="35.04936" lon="32.34346833">
    <ele>211</ele>
    <time>2008-11-18T11:20:28Z</time>
    </trkpt>
    <trkpt lat="35.04935167" lon="32.34346">
    <ele>219</ele>
    <time>2008-11-18T11:20:46Z</time>
    </trkpt>
    <trkpt lat="35.04936167" lon="32.34332667">
    <ele>220</ele>
    <time>2008-11-18T11:20:57Z</time>
    </trkpt>
    <trkpt lat="35.04935167" lon="32.343145">
    <ele>223</ele>
    <time>2008-11-18T11:21:12Z</time>
    </trkpt>
    <trkpt lat="35.04936833" lon="32.34282333">
    <ele>214</ele>
    <time>2008-11-18T11:21:27Z</time>
    </trkpt>
    <trkpt lat="35.04927833" lon="32.34245">
    <ele>207</ele>
    <time>2008-11-18T11:21:41Z</time>
    </trkpt>
    <trkpt lat="35.04924833" lon="32.34234833">
    <ele>195</ele>
    <time>2008-11-18T11:21:53Z</time>
    </trkpt>
    <trkpt lat="35.049295" lon="32.34211">
    <ele>182</ele>
    <time>2008-11-18T11:22:04Z</time>
    </trkpt>
    <trkpt lat="35.04927" lon="32.34205833">
    <ele>184</ele>
    <time>2008-11-18T11:22:17Z</time>
    </trkpt>
    <trkpt lat="35.04917833" lon="32.341905">
    <ele>187</ele>
    <time>2008-11-18T11:22:31Z</time>
    </trkpt>
    <trkpt lat="35.04916" lon="32.341815">
    <ele>182</ele>
    <time>2008-11-18T11:22:42Z</time>
    </trkpt>
    <trkpt lat="35.04908333" lon="32.34165833">
    <ele>176</ele>
    <time>2008-11-18T11:22:55Z</time>
    </trkpt>
    <trkpt lat="35.04907167" lon="32.34144333">
    <ele>178</ele>
    <time>2008-11-18T11:23:07Z</time>
    </trkpt>
    <trkpt lat="35.04907" lon="32.34132667">
    <ele>183</ele>
    <time>2008-11-18T11:23:20Z</time>
    </trkpt>
    <trkpt lat="35.04905333" lon="32.34127">
    <ele>186</ele>
    <time>2008-11-18T11:23:33Z</time>
    </trkpt>
    <trkpt lat="35.04902167" lon="32.34121333">
    <ele>187</ele>
    <time>2008-11-18T11:23:45Z</time>
    </trkpt>
    <trkpt lat="35.04899333" lon="32.3411">
    <ele>189</ele>
    <time>2008-11-18T11:23:56Z</time>
    </trkpt>
    <trkpt lat="35.04893333" lon="32.34103333">
    <ele>191</ele>
    <time>2008-11-18T11:24:10Z</time>
    </trkpt>
    <trkpt lat="35.04886167" lon="32.340825">
    <ele>222</ele>
    <time>2008-11-18T11:24:21Z</time>
    </trkpt>
    <trkpt lat="35.04884667" lon="32.34069">
    <ele>225</ele>
    <time>2008-11-18T11:24:33Z</time>
    </trkpt>
    <trkpt lat="35.04877" lon="32.34043667">
    <ele>219</ele>
    <time>2008-11-18T11:24:47Z</time>
    </trkpt>
    <trkpt lat="35.04877667" lon="32.34015">
    <ele>203</ele>
    <time>2008-11-18T11:24:59Z</time>
    </trkpt>
    <trkpt lat="35.04881833" lon="32.33993333">
    <ele>187</ele>
    <time>2008-11-18T11:25:12Z</time>
    </trkpt>
    <trkpt lat="35.04878167" lon="32.33981333">
    <ele>196</ele>
    <time>2008-11-18T11:25:25Z</time>
    </trkpt>
    <trkpt lat="35.04876667" lon="32.33973667">
    <ele>200</ele>
    <time>2008-11-18T11:25:37Z</time>
    </trkpt>
    <trkpt lat="35.04874333" lon="32.33967">
    <ele>198</ele>
    <time>2008-11-18T11:25:50Z</time>
    </trkpt>
    <trkpt lat="35.04873333" lon="32.33962833">
    <ele>212</ele>
    <time>2008-11-18T11:26:02Z</time>
    </trkpt>
    <trkpt lat="35.04872833" lon="32.33953333">
    <ele>214</ele>
    <time>2008-11-18T11:26:14Z</time>
    </trkpt>
    <trkpt lat="35.048725" lon="32.33942333">
    <ele>220</ele>
    <time>2008-11-18T11:26:26Z</time>
    </trkpt>
    <trkpt lat="35.048685" lon="32.33932833">
    <ele>220</ele>
    <time>2008-11-18T11:26:38Z</time>
    </trkpt>
    <trkpt lat="35.04866167" lon="32.33922833">
    <ele>229</ele>
    <time>2008-11-18T11:26:50Z</time>
    </trkpt>
    <trkpt lat="35.04865667" lon="32.33896">
    <ele>216</ele>
    <time>2008-11-18T11:27:02Z</time>
    </trkpt>
    <trkpt lat="35.04869833" lon="32.33893167">
    <ele>234</ele>
    <time>2008-11-18T11:27:14Z</time>
    </trkpt>
    <trkpt lat="35.04876833" lon="32.33884667">
    <ele>241</ele>
    <time>2008-11-18T11:27:25Z</time>
    </trkpt>
    <trkpt lat="35.04882833" lon="32.33872">
    <ele>246</ele>
    <time>2008-11-18T11:27:36Z</time>
    </trkpt>
    <trkpt lat="35.04886833" lon="32.33862833">
    <ele>244</ele>
    <time>2008-11-18T11:27:48Z</time>
    </trkpt>
    <trkpt lat="35.04887" lon="32.33861833">
    <ele>252</ele>
    <time>2008-11-18T11:28:01Z</time>
    </trkpt>
    <trkpt lat="35.048975" lon="32.33854333">
    <ele>249</ele>
    <time>2008-11-18T11:28:13Z</time>
    </trkpt>
    <trkpt lat="35.04909667" lon="32.33842167">
    <ele>251</ele>
    <time>2008-11-18T11:28:26Z</time>
    </trkpt>
    <trkpt lat="35.04918667" lon="32.338335">
    <ele>250</ele>
    <time>2008-11-18T11:28:38Z</time>
    </trkpt>
    <trkpt lat="35.049165" lon="32.338225">
    <ele>250</ele>
    <time>2008-11-18T11:28:50Z</time>
    </trkpt>
    <trkpt lat="35.04902" lon="32.33808">
    <ele>236</ele>
    <time>2008-11-18T11:29:04Z</time>
    </trkpt>
    <trkpt lat="35.04875667" lon="32.337905">
    <ele>234</ele>
    <time>2008-11-18T11:29:17Z</time>
    </trkpt>
    <trkpt lat="35.04868333" lon="32.33776833">
    <ele>216</ele>
    <time>2008-11-18T11:29:29Z</time>
    </trkpt>
    <trkpt lat="35.04867" lon="32.33770667">
    <ele>219</ele>
    <time>2008-11-18T11:29:46Z</time>
    </trkpt>
    <trkpt lat="35.04857833" lon="32.33765">
    <ele>215</ele>
    <time>2008-11-18T11:29:58Z</time>
    </trkpt>
    <trkpt lat="35.04849333" lon="32.33753667">
    <ele>202</ele>
    <time>2008-11-18T11:30:11Z</time>
    </trkpt>
    <trkpt lat="35.04857" lon="32.33750333">
    <ele>214</ele>
    <time>2008-11-18T11:30:22Z</time>
    </trkpt>
    <trkpt lat="35.04855833" lon="32.33743667">
    <ele>206</ele>
    <time>2008-11-18T11:30:42Z</time>
    </trkpt>
    <trkpt lat="35.04849167" lon="32.33729">
    <ele>209</ele>
    <time>2008-11-18T11:30:53Z</time>
    </trkpt>
    <trkpt lat="35.04842333" lon="32.33723167">
    <ele>215</ele>
    <time>2008-11-18T11:31:05Z</time>
    </trkpt>
    <trkpt lat="35.04835833" lon="32.33716167">
    <ele>216</ele>
    <time>2008-11-18T11:31:16Z</time>
    </trkpt>
    <trkpt lat="35.04829667" lon="32.33714">
    <ele>230</ele>
    <time>2008-11-18T11:31:29Z</time>
    </trkpt>
    <trkpt lat="35.04813833" lon="32.33711833">
    <ele>216</ele>
    <time>2008-11-18T11:31:41Z</time>
    </trkpt>
    <trkpt lat="35.04797667" lon="32.33708667">
    <ele>212</ele>
    <time>2008-11-18T11:31:52Z</time>
    </trkpt>
    <trkpt lat="35.04791833" lon="32.33706167">
    <ele>220</ele>
    <time>2008-11-18T11:32:03Z</time>
    </trkpt>
    <trkpt lat="35.04795167" lon="32.33703">
    <ele>228</ele>
    <time>2008-11-18T11:32:27Z</time>
    </trkpt>
    <trkpt lat="35.04806" lon="32.33696333">
    <ele>226</ele>
    <time>2008-11-18T11:32:38Z</time>
    </trkpt>
    <trkpt lat="35.04810333" lon="32.33693667">
    <ele>230</ele>
    <time>2008-11-18T11:33:13Z</time>
    </trkpt>
    <trkpt lat="35.04823833" lon="32.33687">
    <ele>242</ele>
    <time>2008-11-18T11:33:27Z</time>
    </trkpt>
    <trkpt lat="35.0483" lon="32.33678833">
    <ele>242</ele>
    <time>2008-11-18T11:33:39Z</time>
    </trkpt>
    <trkpt lat="35.04841" lon="32.33669333">
    <ele>251</ele>
    <time>2008-11-18T11:33:53Z</time>
    </trkpt>
    <trkpt lat="35.04851" lon="32.33656167">
    <ele>251</ele>
    <time>2008-11-18T11:34:06Z</time>
    </trkpt>
    <trkpt lat="35.04855" lon="32.33647833">
    <ele>254</ele>
    <time>2008-11-18T11:34:18Z</time>
    </trkpt>
    <trkpt lat="35.04865667" lon="32.336425">
    <ele>257</ele>
    <time>2008-11-18T11:34:29Z</time>
    </trkpt>
    <trkpt lat="35.04872333" lon="32.33636333">
    <ele>260</ele>
    <time>2008-11-18T11:34:41Z</time>
    </trkpt>
    <trkpt lat="35.048765" lon="32.33621">
    <ele>259</ele>
    <time>2008-11-18T11:34:52Z</time>
    </trkpt>
    <trkpt lat="35.04884667" lon="32.33613667">
    <ele>266</ele>
    <time>2008-11-18T11:35:03Z</time>
    </trkpt>
    <trkpt lat="35.04887" lon="32.33607667">
    <ele>267</ele>
    <time>2008-11-18T11:35:19Z</time>
    </trkpt>
    <trkpt lat="35.04883" lon="32.33597333">
    <ele>279</ele>
    <time>2008-11-18T11:36:01Z</time>
    </trkpt>
    <trkpt lat="35.04884833" lon="32.33578833">
    <ele>281</ele>
    <time>2008-11-18T11:36:14Z</time>
    </trkpt>
    <trkpt lat="35.04887833" lon="32.33571">
    <ele>281</ele>
    <time>2008-11-18T11:36:26Z</time>
    </trkpt>
    <trkpt lat="35.04885167" lon="32.33547667">
    <ele>278</ele>
    <time>2008-11-18T11:36:37Z</time>
    </trkpt>
    <trkpt lat="35.04884" lon="32.33540167">
    <ele>274</ele>
    <time>2008-11-18T11:36:48Z</time>
    </trkpt>
    <trkpt lat="35.04880667" lon="32.33527167">
    <ele>269</ele>
    <time>2008-11-18T11:37:02Z</time>
    </trkpt>
    <trkpt lat="35.04874667" lon="32.33515667">
    <ele>264</ele>
    <time>2008-11-18T11:37:13Z</time>
    </trkpt>
    <trkpt lat="35.048735" lon="32.33510333">
    <ele>264</ele>
    <time>2008-11-18T11:37:34Z</time>
    </trkpt>
    <trkpt lat="35.04865667" lon="32.33458333">
    <ele>242</ele>
    <time>2008-11-18T11:37:46Z</time>
    </trkpt>
    <trkpt lat="35.04863" lon="32.33446167">
    <ele>242</ele>
    <time>2008-11-18T11:37:57Z</time>
    </trkpt>
    <trkpt lat="35.04859333" lon="32.33442">
    <ele>238</ele>
    <time>2008-11-18T11:38:08Z</time>
    </trkpt>
    <trkpt lat="35.04852333" lon="32.33416167">
    <ele>243</ele>
    <time>2008-11-18T11:38:19Z</time>
    </trkpt>
    <trkpt lat="35.04852" lon="32.33407">
    <ele>244</ele>
    <time>2008-11-18T11:38:31Z</time>
    </trkpt>
    <trkpt lat="35.04848" lon="32.33395">
    <ele>243</ele>
    <time>2008-11-18T11:38:43Z</time>
    </trkpt>
    <trkpt lat="35.04838" lon="32.33389">
    <ele>248</ele>
    <time>2008-11-18T11:38:54Z</time>
    </trkpt>
    <trkpt lat="35.04831833" lon="32.33385333">
    <ele>247</ele>
    <time>2008-11-18T11:39:06Z</time>
    </trkpt>
    <trkpt lat="35.04813667" lon="32.33375833">
    <ele>237</ele>
    <time>2008-11-18T11:39:18Z</time>
    </trkpt>
    <trkpt lat="35.04809333" lon="32.33370833">
    <ele>239</ele>
    <time>2008-11-18T11:39:29Z</time>
    </trkpt>
    <trkpt lat="35.04802167" lon="32.33369167">
    <ele>240</ele>
    <time>2008-11-18T11:39:41Z</time>
    </trkpt>
    <trkpt lat="35.04797333" lon="32.33368667">
    <ele>243</ele>
    <time>2008-11-18T11:40:04Z</time>
    </trkpt>
    <trkpt lat="35.04800833" lon="32.33361167">
    <ele>233</ele>
    <time>2008-11-18T11:40:46Z</time>
    </trkpt>
    <trkpt lat="35.04800833" lon="32.333555">
    <ele>235</ele>
    <time>2008-11-18T11:41:08Z</time>
    </trkpt>
    <trkpt lat="35.04799667" lon="32.33349167">
    <ele>241</ele>
    <time>2008-11-18T11:41:20Z</time>
    </trkpt>
    <trkpt lat="35.04795333" lon="32.333435">
    <ele>261</ele>
    <time>2008-11-18T11:41:32Z</time>
    </trkpt>
    <trkpt lat="35.04804" lon="32.33336833">
    <ele>267</ele>
    <time>2008-11-18T11:41:44Z</time>
    </trkpt>
    <trkpt lat="35.04803" lon="32.33332667">
    <ele>281</ele>
    <time>2008-11-18T11:42:02Z</time>
    </trkpt>
    <trkpt lat="35.04806" lon="32.33325333">
    <ele>293</ele>
    <time>2008-11-18T11:42:13Z</time>
    </trkpt>
    <trkpt lat="35.04805833" lon="32.33321667">
    <ele>298</ele>
    <time>2008-11-18T11:42:27Z</time>
    </trkpt>
    <trkpt lat="35.04807667" lon="32.333195">
    <ele>320</ele>
    <time>2008-11-18T11:42:39Z</time>
    </trkpt>
    <trkpt lat="35.04808167" lon="32.33313667">
    <ele>319</ele>
    <time>2008-11-18T11:42:51Z</time>
    </trkpt>
    <trkpt lat="35.04805" lon="32.33309833">
    <ele>320</ele>
    <time>2008-11-18T11:43:05Z</time>
    </trkpt>
    <trkpt lat="35.04805333" lon="32.33298">
    <ele>308</ele>
    <time>2008-11-18T11:43:21Z</time>
    </trkpt>
    <trkpt lat="35.04809333" lon="32.33285667">
    <ele>309</ele>
    <time>2008-11-18T11:43:33Z</time>
    </trkpt>
    <trkpt lat="35.04806" lon="32.33276333">
    <ele>309</ele>
    <time>2008-11-18T11:43:44Z</time>
    </trkpt>
    <trkpt lat="35.048035" lon="32.33271667">
    <ele>314</ele>
    <time>2008-11-18T11:44:02Z</time>
    </trkpt>
    <trkpt lat="35.04800167" lon="32.33266">
    <ele>325</ele>
    <time>2008-11-18T11:44:14Z</time>
    </trkpt>
    <trkpt lat="35.04799667" lon="32.332605">
    <ele>327</ele>
    <time>2008-11-18T11:44:40Z</time>
    </trkpt>
    <trkpt lat="35.04795833" lon="32.33257333">
    <ele>327</ele>
    <time>2008-11-18T11:45:20Z</time>
    </trkpt>
    <trkpt lat="35.04791333" lon="32.33250333">
    <ele>341</ele>
    <time>2008-11-18T11:45:34Z</time>
    </trkpt>
    <trkpt lat="35.04783167" lon="32.33247667">
    <ele>359</ele>
    <time>2008-11-18T11:45:45Z</time>
    </trkpt>
    <trkpt lat="35.04779167" lon="32.33237667">
    <ele>378</ele>
    <time>2008-11-18T11:45:57Z</time>
    </trkpt>
    <trkpt lat="35.04773167" lon="32.33228667">
    <ele>380</ele>
    <time>2008-11-18T11:46:08Z</time>
    </trkpt>
    <trkpt lat="35.04771167" lon="32.33215667">
    <ele>377</ele>
    <time>2008-11-18T11:46:28Z</time>
    </trkpt>
    <trkpt lat="35.04763667" lon="32.33215833">
    <ele>381</ele>
    <time>2008-11-18T11:46:40Z</time>
    </trkpt>
    <trkpt lat="35.04756833" lon="32.33200667">
    <ele>387</ele>
    <time>2008-11-18T11:46:54Z</time>
    </trkpt>
    <trkpt lat="35.04756" lon="32.33193333">
    <ele>387</ele>
    <time>2008-11-18T11:47:06Z</time>
    </trkpt>
    <trkpt lat="35.04757" lon="32.33186333">
    <ele>384</ele>
    <time>2008-11-18T11:47:34Z</time>
    </trkpt>
    <trkpt lat="35.04756667" lon="32.3318">
    <ele>383</ele>
    <time>2008-11-18T11:48:04Z</time>
    </trkpt>
    <trkpt lat="35.04761833" lon="32.33174167">
    <ele>390</ele>
    <time>2008-11-18T11:48:36Z</time>
    </trkpt>
    <trkpt lat="35.04754" lon="32.33166333">
    <ele>389</ele>
    <time>2008-11-18T11:48:48Z</time>
    </trkpt>
    <trkpt lat="35.04755167" lon="32.331595">
    <ele>378</ele>
    <time>2008-11-18T11:49:06Z</time>
    </trkpt>
    <trkpt lat="35.04753167" lon="32.33147333">
    <ele>365</ele>
    <time>2008-11-18T11:49:47Z</time>
    </trkpt>
    <trkpt lat="35.04753167" lon="32.33128">
    <ele>332</ele>
    <time>2008-11-18T11:49:58Z</time>
    </trkpt>
    <trkpt lat="35.04761667" lon="32.33121667">
    <ele>306</ele>
    <time>2008-11-18T11:50:09Z</time>
    </trkpt>
    <trkpt lat="35.04757333" lon="32.33110167">
    <ele>309</ele>
    <time>2008-11-18T11:50:44Z</time>
    </trkpt>
    <trkpt lat="35.04751333" lon="32.33107833">
    <ele>326</ele>
    <time>2008-11-18T11:50:56Z</time>
    </trkpt>
    <trkpt lat="35.04751" lon="32.33106667">
    <ele>338</ele>
    <time>2008-11-18T11:51:39Z</time>
    </trkpt>
    <trkpt lat="35.04753667" lon="32.33104333">
    <ele>326</ele>
    <time>2008-11-18T11:52:57Z</time>
    </trkpt>
    <trkpt lat="35.04755167" lon="32.33073">
    <ele>253</ele>
    <time>2008-11-18T11:53:08Z</time>
    </trkpt>
    <trkpt lat="35.04745667" lon="32.33046833">
    <ele>264</ele>
    <time>2008-11-18T11:53:19Z</time>
    </trkpt>
    <trkpt lat="35.04746667" lon="32.33018667">
    <ele>322</ele>
    <time>2008-11-18T11:53:31Z</time>
    </trkpt>
    <trkpt lat="35.04743" lon="32.33012333">
    <ele>314</ele>
    <time>2008-11-18T11:53:50Z</time>
    </trkpt>
    <trkpt lat="35.047435" lon="32.33017333">
    <ele>325</ele>
    <time>2008-11-18T11:54:51Z</time>
    </trkpt>
    <trkpt lat="35.047405" lon="32.33018167">
    <ele>337</ele>
    <time>2008-11-18T11:55:03Z</time>
    </trkpt>
    <trkpt lat="35.04742167" lon="32.33014">
    <ele>325</ele>
    <time>2008-11-18T11:55:40Z</time>
    </trkpt>
    <trkpt lat="35.04743667" lon="32.33010667">
    <ele>315</ele>
    <time>2008-11-18T11:55:54Z</time>
    </trkpt>
    <trkpt lat="35.047475" lon="32.330085">
    <ele>305</ele>
    <time>2008-11-18T11:56:11Z</time>
    </trkpt>
    <trkpt lat="35.047425" lon="32.33012">
    <ele>297</ele>
    <time>2008-11-18T11:57:07Z</time>
    </trkpt>
    <trkpt lat="35.04743667" lon="32.33008167">
    <ele>306</ele>
    <time>2008-11-18T11:57:23Z</time>
    </trkpt>
    <trkpt lat="35.04745667" lon="32.330035">
    <ele>318</ele>
    <time>2008-11-18T11:58:04Z</time>
    </trkpt>
    <trkpt lat="35.04748" lon="32.330045">
    <ele>308</ele>
    <time>2008-11-18T11:59:55Z</time>
    </trkpt>
    <trkpt lat="35.04746167" lon="32.33004167">
    <ele>318</ele>
    <time>2008-11-18T12:00:06Z</time>
    </trkpt>
    <trkpt lat="35.047495" lon="32.32996">
    <ele>327</ele>
    <time>2008-11-18T12:02:07Z</time>
    </trkpt>
    <trkpt lat="35.04751833" lon="32.329985">
    <ele>338</ele>
    <time>2008-11-18T12:03:24Z</time>
    </trkpt>
    <trkpt lat="35.04747833" lon="32.33003833">
    <ele>327</ele>
    <time>2008-11-18T12:03:44Z</time>
    </trkpt>
    <trkpt lat="35.047465" lon="32.33003167">
    <ele>312</ele>
    <time>2008-11-18T12:05:06Z</time>
    </trkpt>
    <trkpt lat="35.047455" lon="32.33007167">
    <ele>288</ele>
    <time>2008-11-18T12:05:17Z</time>
    </trkpt>
    <trkpt lat="35.04745667" lon="32.33008">
    <ele>328</ele>
    <time>2008-11-18T12:05:29Z</time>
    </trkpt>
    <trkpt lat="35.04746167" lon="32.33009167">
    <ele>341</ele>
    <time>2008-11-18T12:05:41Z</time>
    </trkpt>
    <trkpt lat="35.04745167" lon="32.33013167">
    <ele>351</ele>
    <time>2008-11-18T12:06:05Z</time>
    </trkpt>
    <trkpt lat="35.04737" lon="32.330165">
    <ele>366</ele>
    <time>2008-11-18T12:06:54Z</time>
    </trkpt>
    <trkpt lat="35.04741" lon="32.33011333">
    <ele>351</ele>
    <time>2008-11-18T12:07:25Z</time>
    </trkpt>
    <trkpt lat="35.04744667" lon="32.33008833">
    <ele>342</ele>
    <time>2008-11-18T12:07:58Z</time>
    </trkpt>
    <trkpt lat="35.04745333" lon="32.33005833">
    <ele>330</ele>
    <time>2008-11-18T12:08:39Z</time>
    </trkpt>
    <trkpt lat="35.04743" lon="32.33007167">
    <ele>318</ele>
    <time>2008-11-18T12:09:54Z</time>
    </trkpt>
    <trkpt lat="35.04750333" lon="32.33002167">
    <ele>329</ele>
    <time>2008-11-18T12:10:26Z</time>
    </trkpt>
    <trkpt lat="35.04752" lon="32.32997">
    <ele>343</ele>
    <time>2008-11-18T12:10:37Z</time>
    </trkpt>
    <trkpt lat="35.04756" lon="32.33000167">
    <ele>344</ele>
    <time>2008-11-18T12:11:42Z</time>
    </trkpt>
    <trkpt lat="35.04766" lon="32.329985">
    <ele>345</ele>
    <time>2008-11-18T12:12:27Z</time>
    </trkpt>
    <trkpt lat="35.04772833" lon="32.32991833">
    <ele>342</ele>
    <time>2008-11-18T12:12:39Z</time>
    </trkpt>
    <trkpt lat="35.04776667" lon="32.329885">
    <ele>343</ele>
    <time>2008-11-18T12:12:56Z</time>
    </trkpt>
    <trkpt lat="35.04790167" lon="32.32986">
    <ele>341</ele>
    <time>2008-11-18T12:13:08Z</time>
    </trkpt>
    <trkpt lat="35.04791833" lon="32.32980833">
    <ele>342</ele>
    <time>2008-11-18T12:13:20Z</time>
    </trkpt>
    <trkpt lat="35.04796167" lon="32.32979">
    <ele>342</ele>
    <time>2008-11-18T12:13:33Z</time>
    </trkpt>
    <trkpt lat="35.04810167" lon="32.32971">
    <ele>337</ele>
    <time>2008-11-18T12:13:44Z</time>
    </trkpt>
    <trkpt lat="35.04820833" lon="32.32964667">
    <ele>333</ele>
    <time>2008-11-18T12:13:56Z</time>
    </trkpt>
    <trkpt lat="35.04824167" lon="32.32960333">
    <ele>333</ele>
    <time>2008-11-18T12:14:24Z</time>
    </trkpt>
    <trkpt lat="35.04828333" lon="32.329545">
    <ele>333</ele>
    <time>2008-11-18T12:14:36Z</time>
    </trkpt>
    <trkpt lat="35.04839333" lon="32.32945833">
    <ele>341</ele>
    <time>2008-11-18T12:14:49Z</time>
    </trkpt>
    <trkpt lat="35.04855667" lon="32.32935">
    <ele>345</ele>
    <time>2008-11-18T12:15:01Z</time>
    </trkpt>
    <trkpt lat="35.04869667" lon="32.329255">
    <ele>343</ele>
    <time>2008-11-18T12:15:14Z</time>
    </trkpt>
    <trkpt lat="35.048815" lon="32.32913167">
    <ele>344</ele>
    <time>2008-11-18T12:15:27Z</time>
    </trkpt>
    <trkpt lat="35.04883167" lon="32.329095">
    <ele>352</ele>
    <time>2008-11-18T12:15:42Z</time>
    </trkpt>
    <trkpt lat="35.04886333" lon="32.32903833">
    <ele>356</ele>
    <time>2008-11-18T12:15:54Z</time>
    </trkpt>
    <trkpt lat="35.04901" lon="32.32889">
    <ele>360</ele>
    <time>2008-11-18T12:16:05Z</time>
    </trkpt>
    <trkpt lat="35.04914667" lon="32.328725">
    <ele>354</ele>
    <time>2008-11-18T12:16:17Z</time>
    </trkpt>
    <trkpt lat="35.04933667" lon="32.32853">
    <ele>364</ele>
    <time>2008-11-18T12:16:32Z</time>
    </trkpt>
    <trkpt lat="35.04937667" lon="32.32849333">
    <ele>364</ele>
    <time>2008-11-18T12:16:48Z</time>
    </trkpt>
    <trkpt lat="35.04941167" lon="32.32844833">
    <ele>364</ele>
    <time>2008-11-18T12:17:08Z</time>
    </trkpt>
    <trkpt lat="35.04948" lon="32.32833833">
    <ele>372</ele>
    <time>2008-11-18T12:17:19Z</time>
    </trkpt>
    <trkpt lat="35.049535" lon="32.32824167">
    <ele>384</ele>
    <time>2008-11-18T12:17:31Z</time>
    </trkpt>
    <trkpt lat="35.049575" lon="32.328195">
    <ele>383</ele>
    <time>2008-11-18T12:17:42Z</time>
    </trkpt>
    <trkpt lat="35.04963167" lon="32.32815833">
    <ele>387</ele>
    <time>2008-11-18T12:18:06Z</time>
    </trkpt>
    <trkpt lat="35.04978167" lon="32.32805833">
    <ele>388</ele>
    <time>2008-11-18T12:18:18Z</time>
    </trkpt>
    <trkpt lat="35.04982167" lon="32.32802">
    <ele>389</ele>
    <time>2008-11-18T12:18:37Z</time>
    </trkpt>
    <trkpt lat="35.04991333" lon="32.32792333">
    <ele>389</ele>
    <time>2008-11-18T12:18:49Z</time>
    </trkpt>
    <trkpt lat="35.05001833" lon="32.32778667">
    <ele>387</ele>
    <time>2008-11-18T12:19:00Z</time>
    </trkpt>
    <trkpt lat="35.05010333" lon="32.327715">
    <ele>387</ele>
    <time>2008-11-18T12:19:12Z</time>
    </trkpt>
    <trkpt lat="35.05022833" lon="32.32757167">
    <ele>382</ele>
    <time>2008-11-18T12:19:23Z</time>
    </trkpt>
    <trkpt lat="35.050315" lon="32.327495">
    <ele>381</ele>
    <time>2008-11-18T12:19:35Z</time>
    </trkpt>
    <trkpt lat="35.0504" lon="32.32731667">
    <ele>388</ele>
    <time>2008-11-18T12:19:47Z</time>
    </trkpt>
    <trkpt lat="35.05053333" lon="32.32715">
    <ele>388</ele>
    <time>2008-11-18T12:20:00Z</time>
    </trkpt>
    <trkpt lat="35.05066" lon="32.327005">
    <ele>389</ele>
    <time>2008-11-18T12:20:12Z</time>
    </trkpt>
    <trkpt lat="35.05075667" lon="32.32694667">
    <ele>389</ele>
    <time>2008-11-18T12:20:24Z</time>
    </trkpt>
    <trkpt lat="35.05094167" lon="32.32678833">
    <ele>376</ele>
    <time>2008-11-18T12:20:36Z</time>
    </trkpt>
    <trkpt lat="35.05115" lon="32.32666833">
    <ele>372</ele>
    <time>2008-11-18T12:20:50Z</time>
    </trkpt>
    <trkpt lat="35.05123833" lon="32.32659833">
    <ele>369</ele>
    <time>2008-11-18T12:21:02Z</time>
    </trkpt>
    <trkpt lat="35.051415" lon="32.326475">
    <ele>360</ele>
    <time>2008-11-18T12:21:16Z</time>
    </trkpt>
    <trkpt lat="35.051525" lon="32.32640833">
    <ele>360</ele>
    <time>2008-11-18T12:21:27Z</time>
    </trkpt>
    <trkpt lat="35.05163167" lon="32.32635833">
    <ele>360</ele>
    <time>2008-11-18T12:21:40Z</time>
    </trkpt>
    <trkpt lat="35.051735" lon="32.326285">
    <ele>358</ele>
    <time>2008-11-18T12:21:51Z</time>
    </trkpt>
    <trkpt lat="35.051865" lon="32.326215">
    <ele>364</ele>
    <time>2008-11-18T12:22:03Z</time>
    </trkpt>
    <trkpt lat="35.05205167" lon="32.32612833">
    <ele>352</ele>
    <time>2008-11-18T12:22:15Z</time>
    </trkpt>
    <trkpt lat="35.05210333" lon="32.32614333">
    <ele>348</ele>
    <time>2008-11-18T12:22:30Z</time>
    </trkpt>
    <trkpt lat="35.05234667" lon="32.32601667">
    <ele>341</ele>
    <time>2008-11-18T12:22:43Z</time>
    </trkpt>
    <trkpt lat="35.052405" lon="32.32591833">
    <ele>331</ele>
    <time>2008-11-18T12:22:54Z</time>
    </trkpt>
    <trkpt lat="35.05246667" lon="32.325885">
    <ele>340</ele>
    <time>2008-11-18T12:23:05Z</time>
    </trkpt>
    <trkpt lat="35.05263167" lon="32.32577">
    <ele>341</ele>
    <time>2008-11-18T12:23:18Z</time>
    </trkpt>
    <trkpt lat="35.05272333" lon="32.325735">
    <ele>350</ele>
    <time>2008-11-18T12:23:30Z</time>
    </trkpt>
    <trkpt lat="35.05279833" lon="32.32572167">
    <ele>349</ele>
    <time>2008-11-18T12:23:42Z</time>
    </trkpt>
    <trkpt lat="35.05295167" lon="32.32562333">
    <ele>344</ele>
    <time>2008-11-18T12:23:54Z</time>
    </trkpt>
    <trkpt lat="35.05301833" lon="32.3256">
    <ele>350</ele>
    <time>2008-11-18T12:24:06Z</time>
    </trkpt>
    <trkpt lat="35.053195" lon="32.32551667">
    <ele>346</ele>
    <time>2008-11-18T12:24:18Z</time>
    </trkpt>
    <trkpt lat="35.053315" lon="32.32544833">
    <ele>338</ele>
    <time>2008-11-18T12:24:29Z</time>
    </trkpt>
    <trkpt lat="35.05342667" lon="32.325355">
    <ele>342</ele>
    <time>2008-11-18T12:24:41Z</time>
    </trkpt>
    <trkpt lat="35.053475" lon="32.32534333">
    <ele>343</ele>
    <time>2008-11-18T12:24:56Z</time>
    </trkpt>
    <trkpt lat="35.05353333" lon="32.32535">
    <ele>344</ele>
    <time>2008-11-18T12:25:08Z</time>
    </trkpt>
    <trkpt lat="35.05364333" lon="32.32536">
    <ele>344</ele>
    <time>2008-11-18T12:25:20Z</time>
    </trkpt>
    <trkpt lat="35.053725" lon="32.32538">
    <ele>342</ele>
    <time>2008-11-18T12:25:31Z</time>
    </trkpt>
    <trkpt lat="35.05383167" lon="32.32536167">
    <ele>343</ele>
    <time>2008-11-18T12:25:43Z</time>
    </trkpt>
    <trkpt lat="35.053975" lon="32.32536833">
    <ele>344</ele>
    <time>2008-11-18T12:25:54Z</time>
    </trkpt>
    <trkpt lat="35.05414" lon="32.325345">
    <ele>339</ele>
    <time>2008-11-18T12:26:08Z</time>
    </trkpt>
    <trkpt lat="35.05430167" lon="32.325315">
    <ele>334</ele>
    <time>2008-11-18T12:26:21Z</time>
    </trkpt>
    <trkpt lat="35.05439167" lon="32.32537667">
    <ele>334</ele>
    <time>2008-11-18T12:26:33Z</time>
    </trkpt>
    <trkpt lat="35.05444667" lon="32.32547">
    <ele>335</ele>
    <time>2008-11-18T12:26:44Z</time>
    </trkpt>
    <trkpt lat="35.05454667" lon="32.32563333">
    <ele>340</ele>
    <time>2008-11-18T12:26:58Z</time>
    </trkpt>
    <trkpt lat="35.054605" lon="32.32567333">
    <ele>339</ele>
    <time>2008-11-18T12:27:10Z</time>
    </trkpt>
    <trkpt lat="35.05466333" lon="32.325685">
    <ele>338</ele>
    <time>2008-11-18T12:27:23Z</time>
    </trkpt>
    <trkpt lat="35.05477" lon="32.32575">
    <ele>326</ele>
    <time>2008-11-18T12:27:35Z</time>
    </trkpt>
    <trkpt lat="35.05490333" lon="32.32564833">
    <ele>361</ele>
    <time>2008-11-18T12:27:46Z</time>
    </trkpt>
    <trkpt lat="35.05493" lon="32.325665">
    <ele>337</ele>
    <time>2008-11-18T12:27:58Z</time>
    </trkpt>
    <trkpt lat="35.05496333" lon="32.32564333">
    <ele>347</ele>
    <time>2008-11-18T12:28:10Z</time>
    </trkpt>
    <trkpt lat="35.05501333" lon="32.32562167">
    <ele>337</ele>
    <time>2008-11-18T12:28:45Z</time>
    </trkpt>
    <trkpt lat="35.05502167" lon="32.32556667">
    <ele>334</ele>
    <time>2008-11-18T12:28:56Z</time>
    </trkpt>
    <trkpt lat="35.05509667" lon="32.32565333">
    <ele>337</ele>
    <time>2008-11-18T12:29:15Z</time>
    </trkpt>
    <trkpt lat="35.05515167" lon="32.32564667">
    <ele>338</ele>
    <time>2008-11-18T12:31:39Z</time>
    </trkpt>
    <trkpt lat="35.05519667" lon="32.32565333">
    <ele>338</ele>
    <time>2008-11-18T12:31:50Z</time>
    </trkpt>
    <trkpt lat="35.05529667" lon="32.325605">
    <ele>337</ele>
    <time>2008-11-18T12:32:02Z</time>
    </trkpt>
    <trkpt lat="35.05542833" lon="32.325615">
    <ele>337</ele>
    <time>2008-11-18T12:32:14Z</time>
    </trkpt>
    <trkpt lat="35.05547333" lon="32.32564667">
    <ele>337</ele>
    <time>2008-11-18T12:32:25Z</time>
    </trkpt>
    <trkpt lat="35.055925" lon="32.325835">
    <ele>316</ele>
    <time>2008-11-18T12:33:10Z</time>
    </trkpt>
    <trkpt lat="35.05612" lon="32.32594">
    <ele>316</ele>
    <time>2008-11-18T12:33:24Z</time>
    </trkpt>
    <trkpt lat="35.05626667" lon="32.32619">
    <ele>305</ele>
    <time>2008-11-18T12:33:36Z</time>
    </trkpt>
    <trkpt lat="35.056275" lon="32.326175">
    <ele>317</ele>
    <time>2008-11-18T12:33:48Z</time>
    </trkpt>
    <trkpt lat="35.05632333" lon="32.326175">
    <ele>316</ele>
    <time>2008-11-18T12:34:06Z</time>
    </trkpt>
    <trkpt lat="35.05640167" lon="32.32619833">
    <ele>311</ele>
    <time>2008-11-18T12:34:18Z</time>
    </trkpt>
    <trkpt lat="35.056585" lon="32.326155">
    <ele>311</ele>
    <time>2008-11-18T12:34:30Z</time>
    </trkpt>
    <trkpt lat="35.05664" lon="32.32617333">
    <ele>307</ele>
    <time>2008-11-18T12:34:46Z</time>
    </trkpt>
    <trkpt lat="35.056715" lon="32.32615167">
    <ele>312</ele>
    <time>2008-11-18T12:34:57Z</time>
    </trkpt>
    <trkpt lat="35.056785" lon="32.32614">
    <ele>322</ele>
    <time>2008-11-18T12:35:09Z</time>
    </trkpt>
    <trkpt lat="35.05692833" lon="32.32621667">
    <ele>317</ele>
    <time>2008-11-18T12:35:20Z</time>
    </trkpt>
    <trkpt lat="35.05719333" lon="32.32632333">
    <ele>312</ele>
    <time>2008-11-18T12:35:32Z</time>
    </trkpt>
    <trkpt lat="35.05737" lon="32.32640833">
    <ele>306</ele>
    <time>2008-11-18T12:35:45Z</time>
    </trkpt>
    <trkpt lat="35.0575" lon="32.32648167">
    <ele>306</ele>
    <time>2008-11-18T12:35:56Z</time>
    </trkpt>
    <trkpt lat="35.05758333" lon="32.32652333">
    <ele>307</ele>
    <time>2008-11-18T12:36:11Z</time>
    </trkpt>
    <trkpt lat="35.057675" lon="32.32651">
    <ele>308</ele>
    <time>2008-11-18T12:36:23Z</time>
    </trkpt>
    <trkpt lat="35.05771167" lon="32.32642">
    <ele>311</ele>
    <time>2008-11-18T12:36:34Z</time>
    </trkpt>
    <trkpt lat="35.05779833" lon="32.32639167">
    <ele>299</ele>
    <time>2008-11-18T12:36:49Z</time>
    </trkpt>
    <trkpt lat="35.05794" lon="32.32641">
    <ele>296</ele>
    <time>2008-11-18T12:37:00Z</time>
    </trkpt>
    <trkpt lat="35.05801833" lon="32.32635167">
    <ele>300</ele>
    <time>2008-11-18T12:37:11Z</time>
    </trkpt>
    <trkpt lat="35.05808333" lon="32.32636333">
    <ele>302</ele>
    <time>2008-11-18T12:37:22Z</time>
    </trkpt>
    <trkpt lat="35.058165" lon="32.326295">
    <ele>305</ele>
    <time>2008-11-18T12:37:34Z</time>
    </trkpt>
    <trkpt lat="35.05846167" lon="32.32612833">
    <ele>285</ele>
    <time>2008-11-18T12:37:47Z</time>
    </trkpt>
    <trkpt lat="35.058495" lon="32.326085">
    <ele>287</ele>
    <time>2008-11-18T12:37:59Z</time>
    </trkpt>
    <trkpt lat="35.05854833" lon="32.32606167">
    <ele>288</ele>
    <time>2008-11-18T12:38:10Z</time>
    </trkpt>
    <trkpt lat="35.05859333" lon="32.32606667">
    <ele>291</ele>
    <time>2008-11-18T12:38:22Z</time>
    </trkpt>
    <trkpt lat="35.05864" lon="32.32603">
    <ele>291</ele>
    <time>2008-11-18T12:38:33Z</time>
    </trkpt>
    <trkpt lat="35.05875667" lon="32.32608167">
    <ele>265</ele>
    <time>2008-11-18T12:38:48Z</time>
    </trkpt>
    <trkpt lat="35.05881167" lon="32.326095">
    <ele>254</ele>
    <time>2008-11-18T12:38:59Z</time>
    </trkpt>
    <trkpt lat="35.05888" lon="32.32603667">
    <ele>236</ele>
    <time>2008-11-18T12:39:10Z</time>
    </trkpt>
    <trkpt lat="35.05947167" lon="32.326075">
    <ele>279</ele>
    <time>2008-11-18T12:40:25Z</time>
    </trkpt>
    <trkpt lat="35.05948167" lon="32.32608167">
    <ele>291</ele>
    <time>2008-11-18T12:41:08Z</time>
    </trkpt>
    <trkpt lat="35.05945333" lon="32.32616167">
    <ele>290</ele>
    <time>2008-11-18T12:45:34Z</time>
    </trkpt>
    <trkpt lat="35.05938833" lon="32.326265">
    <ele>286</ele>
    <time>2008-11-18T12:45:47Z</time>
    </trkpt>
    <trkpt lat="35.05942667" lon="32.32634333">
    <ele>274</ele>
    <time>2008-11-18T12:46:18Z</time>
    </trkpt>
    <trkpt lat="35.05941833" lon="32.32643833">
    <ele>262</ele>
    <time>2008-11-18T12:46:45Z</time>
    </trkpt>
    <trkpt lat="35.05944" lon="32.326515">
    <ele>227</ele>
    <time>2008-11-18T12:46:57Z</time>
    </trkpt>
    <trkpt lat="35.05945333" lon="32.326445">
    <ele>235</ele>
    <time>2008-11-18T12:47:09Z</time>
    </trkpt>
    <trkpt lat="35.05942833" lon="32.32627">
    <ele>260</ele>
    <time>2008-11-18T12:47:20Z</time>
    </trkpt>
    <trkpt lat="35.05947833" lon="32.326085">
    <ele>270</ele>
    <time>2008-11-18T12:47:34Z</time>
    </trkpt>
    <trkpt lat="35.05940833" lon="32.32595667">
    <ele>285</ele>
    <time>2008-11-18T12:47:45Z</time>
    </trkpt>
    <trkpt lat="35.05936333" lon="32.32586167">
    <ele>278</ele>
    <time>2008-11-18T12:47:59Z</time>
    </trkpt>
    <trkpt lat="35.05934333" lon="32.32578">
    <ele>286</ele>
    <time>2008-11-18T12:48:30Z</time>
    </trkpt>
    <trkpt lat="35.05939333" lon="32.32573833">
    <ele>296</ele>
    <time>2008-11-18T12:49:12Z</time>
    </trkpt>
    <trkpt lat="35.05943333" lon="32.32575167">
    <ele>285</ele>
    <time>2008-11-18T12:49:23Z</time>
    </trkpt>
    <trkpt lat="35.05942833" lon="32.32581333">
    <ele>289</ele>
    <time>2008-11-18T12:49:45Z</time>
    </trkpt>
    <trkpt lat="35.059455" lon="32.325875">
    <ele>289</ele>
    <time>2008-11-18T12:49:57Z</time>
    </trkpt>
    <trkpt lat="35.05946833" lon="32.32601833">
    <ele>284</ele>
    <time>2008-11-18T12:50:10Z</time>
    </trkpt>
    <trkpt lat="35.05949167" lon="32.32616833">
    <ele>290</ele>
    <time>2008-11-18T12:50:21Z</time>
    </trkpt>
    <trkpt lat="35.05948833" lon="32.32628667">
    <ele>284</ele>
    <time>2008-11-18T12:50:43Z</time>
    </trkpt>
    <trkpt lat="35.05948667" lon="32.32638667">
    <ele>288</ele>
    <time>2008-11-18T12:50:55Z</time>
    </trkpt>
    <trkpt lat="35.05950667" lon="32.32651833">
    <ele>282</ele>
    <time>2008-11-18T12:51:05Z</time>
    </trkpt>
    <trkpt lat="35.05951333" lon="32.32664833">
    <ele>284</ele>
    <time>2008-11-18T12:51:17Z</time>
    </trkpt>
    <trkpt lat="35.05949833" lon="32.32670667">
    <ele>283</ele>
    <time>2008-11-18T12:51:31Z</time>
    </trkpt>
    <trkpt lat="35.05953833" lon="32.32682333">
    <ele>282</ele>
    <time>2008-11-18T12:51:44Z</time>
    </trkpt>
    <trkpt lat="35.05952" lon="32.32696667">
    <ele>292</ele>
    <time>2008-11-18T12:51:56Z</time>
    </trkpt>
    <trkpt lat="35.05956333" lon="32.327105">
    <ele>284</ele>
    <time>2008-11-18T12:52:08Z</time>
    </trkpt>
    <trkpt lat="35.05962" lon="32.327225">
    <ele>280</ele>
    <time>2008-11-18T12:52:21Z</time>
    </trkpt>
    <trkpt lat="35.05966833" lon="32.32745667">
    <ele>275</ele>
    <time>2008-11-18T12:52:35Z</time>
    </trkpt>
    <trkpt lat="35.05963833" lon="32.32768667">
    <ele>278</ele>
    <time>2008-11-18T12:52:47Z</time>
    </trkpt>
    <trkpt lat="35.059755" lon="32.32781167">
    <ele>286</ele>
    <time>2008-11-18T12:53:00Z</time>
    </trkpt>
    <trkpt lat="35.059845" lon="32.32794167">
    <ele>287</ele>
    <time>2008-11-18T12:53:12Z</time>
    </trkpt>
    <trkpt lat="35.05989833" lon="32.32812333">
    <ele>286</ele>
    <time>2008-11-18T12:53:25Z</time>
    </trkpt>
    <trkpt lat="35.06009" lon="32.32813833">
    <ele>292</ele>
    <time>2008-11-18T12:53:38Z</time>
    </trkpt>
    <trkpt lat="35.06016" lon="32.32823167">
    <ele>290</ele>
    <time>2008-11-18T12:53:51Z</time>
    </trkpt>
    <trkpt lat="35.06024667" lon="32.32833167">
    <ele>294</ele>
    <time>2008-11-18T12:54:03Z</time>
    </trkpt>
    <trkpt lat="35.060335" lon="32.32841167">
    <ele>291</ele>
    <time>2008-11-18T12:54:14Z</time>
    </trkpt>
    <trkpt lat="35.06032667" lon="32.32865667">
    <ele>281</ele>
    <time>2008-11-18T12:54:27Z</time>
    </trkpt>
    <trkpt lat="35.060335" lon="32.32885">
    <ele>288</ele>
    <time>2008-11-18T12:54:40Z</time>
    </trkpt>
    <trkpt lat="35.060325" lon="32.32902167">
    <ele>286</ele>
    <time>2008-11-18T12:54:52Z</time>
    </trkpt>
    <trkpt lat="35.060285" lon="32.32908667">
    <ele>282</ele>
    <time>2008-11-18T12:55:05Z</time>
    </trkpt>
    <trkpt lat="35.06023667" lon="32.32921833">
    <ele>286</ele>
    <time>2008-11-18T12:55:17Z</time>
    </trkpt>
    <trkpt lat="35.06023333" lon="32.32936333">
    <ele>284</ele>
    <time>2008-11-18T12:55:29Z</time>
    </trkpt>
    <trkpt lat="35.060205" lon="32.32933167">
    <ele>275</ele>
    <time>2008-11-18T12:59:00Z</time>
    </trkpt>
    <trkpt lat="35.06021833" lon="32.32932167">
    <ele>286</ele>
    <time>2008-11-18T13:03:56Z</time>
    </trkpt>
    <trkpt lat="35.06022833" lon="32.32932">
    <ele>297</ele>
    <time>2008-11-18T13:04:08Z</time>
    </trkpt>
    <trkpt lat="35.06023333" lon="32.32927667">
    <ele>307</ele>
    <time>2008-11-18T13:05:42Z</time>
    </trkpt>
    <trkpt lat="35.06019167" lon="32.32927167">
    <ele>298</ele>
    <time>2008-11-18T13:05:57Z</time>
    </trkpt>
    <trkpt lat="35.06017333" lon="32.32926833">
    <ele>288</ele>
    <time>2008-11-18T13:06:47Z</time>
    </trkpt>
    <trkpt lat="35.0602" lon="32.32922833">
    <ele>298</ele>
    <time>2008-11-18T13:06:58Z</time>
    </trkpt>
    <trkpt lat="35.06016333" lon="32.329285">
    <ele>296</ele>
    <time>2008-11-18T13:07:35Z</time>
    </trkpt>
    <trkpt lat="35.06014" lon="32.32947667">
    <ele>291</ele>
    <time>2008-11-18T13:07:47Z</time>
    </trkpt>
    <trkpt lat="35.06009833" lon="32.32964833">
    <ele>292</ele>
    <time>2008-11-18T13:07:59Z</time>
    </trkpt>
    <trkpt lat="35.05999833" lon="32.32977833">
    <ele>291</ele>
    <time>2008-11-18T13:08:11Z</time>
    </trkpt>
    <trkpt lat="35.05996" lon="32.32989333">
    <ele>296</ele>
    <time>2008-11-18T13:08:22Z</time>
    </trkpt>
    <trkpt lat="35.05993333" lon="32.33006333">
    <ele>303</ele>
    <time>2008-11-18T13:08:35Z</time>
    </trkpt>
    <trkpt lat="35.06005" lon="32.330305">
    <ele>295</ele>
    <time>2008-11-18T13:08:47Z</time>
    </trkpt>
    <trkpt lat="35.06006333" lon="32.33039333">
    <ele>296</ele>
    <time>2008-11-18T13:08:59Z</time>
    </trkpt>
    <trkpt lat="35.06002833" lon="32.33046333">
    <ele>296</ele>
    <time>2008-11-18T13:09:11Z</time>
    </trkpt>
    <trkpt lat="35.06000333" lon="32.33052333">
    <ele>299</ele>
    <time>2008-11-18T13:09:29Z</time>
    </trkpt>
    <trkpt lat="35.059925" lon="32.33056">
    <ele>301</ele>
    <time>2008-11-18T13:09:40Z</time>
    </trkpt>
    <trkpt lat="35.05989833" lon="32.330595">
    <ele>287</ele>
    <time>2008-11-18T13:09:52Z</time>
    </trkpt>
    <trkpt lat="35.05988167" lon="32.33061667">
    <ele>300</ele>
    <time>2008-11-18T13:10:04Z</time>
    </trkpt>
    <trkpt lat="35.05991833" lon="32.33065">
    <ele>290</ele>
    <time>2008-11-18T13:10:16Z</time>
    </trkpt>
    <trkpt lat="35.05995" lon="32.33071667">
    <ele>283</ele>
    <time>2008-11-18T13:10:29Z</time>
    </trkpt>
    <trkpt lat="35.05999167" lon="32.33077667">
    <ele>278</ele>
    <time>2008-11-18T13:12:34Z</time>
    </trkpt>
    <trkpt lat="35.05998" lon="32.33084667">
    <ele>280</ele>
    <time>2008-11-18T13:12:46Z</time>
    </trkpt>
    <trkpt lat="35.05996667" lon="32.33090833">
    <ele>279</ele>
    <time>2008-11-18T13:13:06Z</time>
    </trkpt>
    <trkpt lat="35.05989833" lon="32.33096833">
    <ele>269</ele>
    <time>2008-11-18T13:13:17Z</time>
    </trkpt>
    <trkpt lat="35.05987833" lon="32.33119167">
    <ele>274</ele>
    <time>2008-11-18T13:13:29Z</time>
    </trkpt>
    <trkpt lat="35.05990667" lon="32.33128">
    <ele>264</ele>
    <time>2008-11-18T13:13:41Z</time>
    </trkpt>
    <trkpt lat="35.05985167" lon="32.33139167">
    <ele>267</ele>
    <time>2008-11-18T13:13:54Z</time>
    </trkpt>
    <trkpt lat="35.05982667" lon="32.33162">
    <ele>267</ele>
    <time>2008-11-18T13:14:08Z</time>
    </trkpt>
    <trkpt lat="35.059785" lon="32.33173667">
    <ele>268</ele>
    <time>2008-11-18T13:14:19Z</time>
    </trkpt>
    <trkpt lat="35.05977667" lon="32.33189167">
    <ele>272</ele>
    <time>2008-11-18T13:14:30Z</time>
    </trkpt>
    <trkpt lat="35.059735" lon="32.33206333">
    <ele>269</ele>
    <time>2008-11-18T13:14:41Z</time>
    </trkpt>
    <trkpt lat="35.05972167" lon="32.33220833">
    <ele>268</ele>
    <time>2008-11-18T13:14:52Z</time>
    </trkpt>
    <trkpt lat="35.059675" lon="32.33231333">
    <ele>269</ele>
    <time>2008-11-18T13:15:04Z</time>
    </trkpt>
    <trkpt lat="35.05966667" lon="32.33236833">
    <ele>269</ele>
    <time>2008-11-18T13:15:21Z</time>
    </trkpt>
    <trkpt lat="35.05972833" lon="32.332405">
    <ele>276</ele>
    <time>2008-11-18T13:15:46Z</time>
    </trkpt>
    <trkpt lat="35.05977667" lon="32.33245333">
    <ele>268</ele>
    <time>2008-11-18T13:16:01Z</time>
    </trkpt>
    <trkpt lat="35.05980333" lon="32.33252">
    <ele>269</ele>
    <time>2008-11-18T13:16:12Z</time>
    </trkpt>
    <trkpt lat="35.059795" lon="32.33254167">
    <ele>263</ele>
    <time>2008-11-18T13:18:12Z</time>
    </trkpt>
    <trkpt lat="35.05974167" lon="32.33261">
    <ele>260</ele>
    <time>2008-11-18T13:18:23Z</time>
    </trkpt>
    <trkpt lat="35.05968167" lon="32.332725">
    <ele>253</ele>
    <time>2008-11-18T13:18:34Z</time>
    </trkpt>
    <trkpt lat="35.05963167" lon="32.33282833">
    <ele>256</ele>
    <time>2008-11-18T13:18:46Z</time>
    </trkpt>
    <trkpt lat="35.059615" lon="32.33288167">
    <ele>257</ele>
    <time>2008-11-18T13:18:58Z</time>
    </trkpt>
    <trkpt lat="35.05965" lon="32.332925">
    <ele>258</ele>
    <time>2008-11-18T13:19:29Z</time>
    </trkpt>
    <trkpt lat="35.05960833" lon="32.33302667">
    <ele>255</ele>
    <time>2008-11-18T13:19:42Z</time>
    </trkpt>
    <trkpt lat="35.05958" lon="32.33307167">
    <ele>253</ele>
    <time>2008-11-18T13:19:53Z</time>
    </trkpt>
    <trkpt lat="35.05957167" lon="32.33312667">
    <ele>255</ele>
    <time>2008-11-18T13:20:06Z</time>
    </trkpt>
    <trkpt lat="35.05953667" lon="32.33319333">
    <ele>248</ele>
    <time>2008-11-18T13:20:25Z</time>
    </trkpt>
    <trkpt lat="35.05950833" lon="32.33324833">
    <ele>247</ele>
    <time>2008-11-18T13:20:37Z</time>
    </trkpt>
    <trkpt lat="35.05955333" lon="32.33328167">
    <ele>256</ele>
    <time>2008-11-18T13:20:48Z</time>
    </trkpt>
    <trkpt lat="35.05950667" lon="32.33339167">
    <ele>258</ele>
    <time>2008-11-18T13:21:00Z</time>
    </trkpt>
    <trkpt lat="35.05944" lon="32.33348167">
    <ele>254</ele>
    <time>2008-11-18T13:21:11Z</time>
    </trkpt>
    <trkpt lat="35.05943" lon="32.333535">
    <ele>254</ele>
    <time>2008-11-18T13:21:23Z</time>
    </trkpt>
    <trkpt lat="35.05933833" lon="32.33362667">
    <ele>256</ele>
    <time>2008-11-18T13:21:36Z</time>
    </trkpt>
    <trkpt lat="35.05936167" lon="32.33362667">
    <ele>246</ele>
    <time>2008-11-18T13:22:28Z</time>
    </trkpt>
    <trkpt lat="35.059405" lon="32.33369167">
    <ele>239</ele>
    <time>2008-11-18T13:22:44Z</time>
    </trkpt>
    <trkpt lat="35.059395" lon="32.33376833">
    <ele>237</ele>
    <time>2008-11-18T13:22:56Z</time>
    </trkpt>
    <trkpt lat="35.05936167" lon="32.33385">
    <ele>237</ele>
    <time>2008-11-18T13:23:08Z</time>
    </trkpt>
    <trkpt lat="35.05935333" lon="32.33390667">
    <ele>236</ele>
    <time>2008-11-18T13:23:24Z</time>
    </trkpt>
    <trkpt lat="35.059345" lon="32.33399833">
    <ele>234</ele>
    <time>2008-11-18T13:23:36Z</time>
    </trkpt>
    <trkpt lat="35.05933667" lon="32.33414833">
    <ele>234</ele>
    <time>2008-11-18T13:23:49Z</time>
    </trkpt>
    <trkpt lat="35.05929833" lon="32.33419333">
    <ele>236</ele>
    <time>2008-11-18T13:24:03Z</time>
    </trkpt>
    <trkpt lat="35.05922333" lon="32.33435">
    <ele>236</ele>
    <time>2008-11-18T13:24:18Z</time>
    </trkpt>
    <trkpt lat="35.05916333" lon="32.334575">
    <ele>242</ele>
    <time>2008-11-18T13:24:31Z</time>
    </trkpt>
    <trkpt lat="35.05915" lon="32.334635">
    <ele>239</ele>
    <time>2008-11-18T13:24:42Z</time>
    </trkpt>
    <trkpt lat="35.05914167" lon="32.33471833">
    <ele>240</ele>
    <time>2008-11-18T13:24:53Z</time>
    </trkpt>
    <trkpt lat="35.05910333" lon="32.33476667">
    <ele>239</ele>
    <time>2008-11-18T13:25:04Z</time>
    </trkpt>
    <trkpt lat="35.058915" lon="32.33489667">
    <ele>231</ele>
    <time>2008-11-18T13:25:16Z</time>
    </trkpt>
    <trkpt lat="35.05887167" lon="32.33502">
    <ele>230</ele>
    <time>2008-11-18T13:25:30Z</time>
    </trkpt>
    <trkpt lat="35.058835" lon="32.33529333">
    <ele>247</ele>
    <time>2008-11-18T13:25:44Z</time>
    </trkpt>
    <trkpt lat="35.05878833" lon="32.33531">
    <ele>246</ele>
    <time>2008-11-18T13:25:57Z</time>
    </trkpt>
    <trkpt lat="35.05873833" lon="32.33537833">
    <ele>245</ele>
    <time>2008-11-18T13:26:09Z</time>
    </trkpt>
    <trkpt lat="35.05872667" lon="32.33546667">
    <ele>241</ele>
    <time>2008-11-18T13:26:21Z</time>
    </trkpt>
    <trkpt lat="35.05870833" lon="32.33553667">
    <ele>240</ele>
    <time>2008-11-18T13:26:46Z</time>
    </trkpt>
    <trkpt lat="35.058655" lon="32.33562833">
    <ele>237</ele>
    <time>2008-11-18T13:26:57Z</time>
    </trkpt>
    <trkpt lat="35.05859167" lon="32.33571833">
    <ele>236</ele>
    <time>2008-11-18T13:27:09Z</time>
    </trkpt>
    <trkpt lat="35.058565" lon="32.335845">
    <ele>237</ele>
    <time>2008-11-18T13:27:20Z</time>
    </trkpt>
    <trkpt lat="35.05851167" lon="32.33598833">
    <ele>237</ele>
    <time>2008-11-18T13:27:33Z</time>
    </trkpt>
    <trkpt lat="35.058455" lon="32.336205">
    <ele>235</ele>
    <time>2008-11-18T13:27:45Z</time>
    </trkpt>
    <trkpt lat="35.05845" lon="32.33637833">
    <ele>243</ele>
    <time>2008-11-18T13:27:57Z</time>
    </trkpt>
    <trkpt lat="35.05839667" lon="32.336585">
    <ele>239</ele>
    <time>2008-11-18T13:28:09Z</time>
    </trkpt>
    <trkpt lat="35.05834167" lon="32.336805">
    <ele>236</ele>
    <time>2008-11-18T13:28:21Z</time>
    </trkpt>
    <trkpt lat="35.058265" lon="32.33707333">
    <ele>225</ele>
    <time>2008-11-18T13:28:33Z</time>
    </trkpt>
    <trkpt lat="35.05824667" lon="32.33718167">
    <ele>224</ele>
    <time>2008-11-18T13:28:44Z</time>
    </trkpt>
    <trkpt lat="35.05835167" lon="32.337525">
    <ele>183</ele>
    <time>2008-11-18T13:28:56Z</time>
    </trkpt>
    <trkpt lat="35.05816333" lon="32.33781">
    <ele>118</ele>
    <time>2008-11-18T13:29:08Z</time>
    </trkpt>
    <trkpt lat="35.05812" lon="32.33792">
    <ele>100</ele>
    <time>2008-11-18T13:29:20Z</time>
    </trkpt>
    <trkpt lat="35.058105" lon="32.33797">
    <ele>113</ele>
    <time>2008-11-18T13:29:32Z</time>
    </trkpt>
    <trkpt lat="35.05811667" lon="32.33801167">
    <ele>123</ele>
    <time>2008-11-18T13:29:45Z</time>
    </trkpt>
    <trkpt lat="35.058125" lon="32.33808167">
    <ele>152</ele>
    <time>2008-11-18T13:29:56Z</time>
    </trkpt>
    <trkpt lat="35.05814667" lon="32.33811833">
    <ele>140</ele>
    <time>2008-11-18T13:30:08Z</time>
    </trkpt>
    <trkpt lat="35.05818333" lon="32.33816667">
    <ele>155</ele>
    <time>2008-11-18T13:30:46Z</time>
    </trkpt>
    <trkpt lat="35.05814833" lon="32.33825">
    <ele>178</ele>
    <time>2008-11-18T13:30:57Z</time>
    </trkpt>
    <trkpt lat="35.05811833" lon="32.33829167">
    <ele>169</ele>
    <time>2008-11-18T13:31:17Z</time>
    </trkpt>
    <trkpt lat="35.05815833" lon="32.33833167">
    <ele>159</ele>
    <time>2008-11-18T13:32:02Z</time>
    </trkpt>
    <trkpt lat="35.05815333" lon="32.33837333">
    <ele>148</ele>
    <time>2008-11-18T13:32:39Z</time>
    </trkpt>
    <trkpt lat="35.05810667" lon="32.33839333">
    <ele>146</ele>
    <time>2008-11-18T13:33:09Z</time>
    </trkpt>
    <trkpt lat="35.05806" lon="32.33844667">
    <ele>143</ele>
    <time>2008-11-18T13:33:24Z</time>
    </trkpt>
    <trkpt lat="35.05792667" lon="32.33856333">
    <ele>130</ele>
    <time>2008-11-18T13:33:36Z</time>
    </trkpt>
    <trkpt lat="35.05783333" lon="32.33875833">
    <ele>141</ele>
    <time>2008-11-18T13:33:49Z</time>
    </trkpt>
    <trkpt lat="35.05775333" lon="32.33895333">
    <ele>142</ele>
    <time>2008-11-18T13:34:04Z</time>
    </trkpt>
    <trkpt lat="35.05774333" lon="32.33919833">
    <ele>152</ele>
    <time>2008-11-18T13:34:15Z</time>
    </trkpt>
    <trkpt lat="35.05776167" lon="32.339565">
    <ele>150</ele>
    <time>2008-11-18T13:34:30Z</time>
    </trkpt>
    <trkpt lat="35.05770167" lon="32.339755">
    <ele>141</ele>
    <time>2008-11-18T13:34:43Z</time>
    </trkpt>
    <trkpt lat="35.05766" lon="32.34">
    <ele>142</ele>
    <time>2008-11-18T13:34:57Z</time>
    </trkpt>
    <trkpt lat="35.0576" lon="32.34016667">
    <ele>141</ele>
    <time>2008-11-18T13:35:10Z</time>
    </trkpt>
    <trkpt lat="35.05756167" lon="32.34031333">
    <ele>144</ele>
    <time>2008-11-18T13:35:22Z</time>
    </trkpt>
    <trkpt lat="35.05752167" lon="32.34039667">
    <ele>141</ele>
    <time>2008-11-18T13:35:35Z</time>
    </trkpt>
    <trkpt lat="35.05752667" lon="32.340525">
    <ele>152</ele>
    <time>2008-11-18T13:35:49Z</time>
    </trkpt>
    <trkpt lat="35.057465" lon="32.34070333">
    <ele>153</ele>
    <time>2008-11-18T13:36:03Z</time>
    </trkpt>
    <trkpt lat="35.057385" lon="32.34090333">
    <ele>153</ele>
    <time>2008-11-18T13:36:17Z</time>
    </trkpt>
    <trkpt lat="35.05731" lon="32.34107833">
    <ele>147</ele>
    <time>2008-11-18T13:36:29Z</time>
    </trkpt>
    <trkpt lat="35.05727333" lon="32.34130167">
    <ele>137</ele>
    <time>2008-11-18T13:36:42Z</time>
    </trkpt>
    <trkpt lat="35.05723667" lon="32.34157167">
    <ele>135</ele>
    <time>2008-11-18T13:36:56Z</time>
    </trkpt>
    <trkpt lat="35.057205" lon="32.34171333">
    <ele>135</ele>
    <time>2008-11-18T13:37:07Z</time>
    </trkpt>
    <trkpt lat="35.05721" lon="32.34183333">
    <ele>142</ele>
    <time>2008-11-18T13:37:18Z</time>
    </trkpt>
    <trkpt lat="35.05710833" lon="32.34198333">
    <ele>147</ele>
    <time>2008-11-18T13:37:31Z</time>
    </trkpt>
    <trkpt lat="35.05713" lon="32.34190667">
    <ele>152</ele>
    <time>2008-11-18T13:38:31Z</time>
    </trkpt>
    <trkpt lat="35.05724333" lon="32.341905">
    <ele>155</ele>
    <time>2008-11-18T13:38:43Z</time>
    </trkpt>
    <trkpt lat="35.05726333" lon="32.34197">
    <ele>155</ele>
    <time>2008-11-18T13:38:55Z</time>
    </trkpt>
    <trkpt lat="35.05720667" lon="32.34205">
    <ele>158</ele>
    <time>2008-11-18T13:39:06Z</time>
    </trkpt>
    <trkpt lat="35.05719333" lon="32.34215333">
    <ele>159</ele>
    <time>2008-11-18T13:39:19Z</time>
    </trkpt>
    <trkpt lat="35.05724667" lon="32.34231667">
    <ele>172</ele>
    <time>2008-11-18T13:39:31Z</time>
    </trkpt>
    <trkpt lat="35.057225" lon="32.34238167">
    <ele>168</ele>
    <time>2008-11-18T13:39:46Z</time>
    </trkpt>
    <trkpt lat="35.05717667" lon="32.342465">
    <ele>168</ele>
    <time>2008-11-18T13:39:58Z</time>
    </trkpt>
    <trkpt lat="35.05718333" lon="32.34254">
    <ele>156</ele>
    <time>2008-11-18T13:41:49Z</time>
    </trkpt>
    <trkpt lat="35.05717667" lon="32.34259">
    <ele>147</ele>
    <time>2008-11-18T13:42:01Z</time>
    </trkpt>
    <trkpt lat="35.05719333" lon="32.34259167">
    <ele>139</ele>
    <time>2008-11-18T13:43:58Z</time>
    </trkpt>
    <trkpt lat="35.057185" lon="32.34258833">
    <ele>153</ele>
    <time>2008-11-18T13:44:26Z</time>
    </trkpt>
    <trkpt lat="35.057135" lon="32.34258833">
    <ele>151</ele>
    <time>2008-11-18T13:46:44Z</time>
    </trkpt>
    <trkpt lat="35.05699" lon="32.34263">
    <ele>150</ele>
    <time>2008-11-18T13:46:57Z</time>
    </trkpt>
    <trkpt lat="35.05690167" lon="32.34254167">
    <ele>145</ele>
    <time>2008-11-18T13:47:09Z</time>
    </trkpt>
    <trkpt lat="35.05684667" lon="32.34244">
    <ele>136</ele>
    <time>2008-11-18T13:47:20Z</time>
    </trkpt>
    <trkpt lat="35.05678333" lon="32.34235167">
    <ele>138</ele>
    <time>2008-11-18T13:47:33Z</time>
    </trkpt>
    <trkpt lat="35.056705" lon="32.34219833">
    <ele>144</ele>
    <time>2008-11-18T13:47:45Z</time>
    </trkpt>
    <trkpt lat="35.05671333" lon="32.34227">
    <ele>145</ele>
    <time>2008-11-18T13:48:05Z</time>
    </trkpt>
    <trkpt lat="35.05672333" lon="32.34252">
    <ele>149</ele>
    <time>2008-11-18T13:48:20Z</time>
    </trkpt>
    <trkpt lat="35.05672" lon="32.34271">
    <ele>155</ele>
    <time>2008-11-18T13:48:32Z</time>
    </trkpt>
    <trkpt lat="35.056665" lon="32.34277">
    <ele>146</ele>
    <time>2008-11-18T13:48:44Z</time>
    </trkpt>
    <trkpt lat="35.05664333" lon="32.34294167">
    <ele>141</ele>
    <time>2008-11-18T13:48:56Z</time>
    </trkpt>
    <trkpt lat="35.056645" lon="32.34303667">
    <ele>134</ele>
    <time>2008-11-18T13:49:07Z</time>
    </trkpt>
    <trkpt lat="35.05673167" lon="32.34314667">
    <ele>131</ele>
    <time>2008-11-18T13:49:21Z</time>
    </trkpt>
    <trkpt lat="35.05681167" lon="32.34319333">
    <ele>132</ele>
    <time>2008-11-18T13:49:33Z</time>
    </trkpt>
    <trkpt lat="35.05681833" lon="32.34325667">
    <ele>132</ele>
    <time>2008-11-18T13:49:54Z</time>
    </trkpt>
    <trkpt lat="35.05683167" lon="32.343365">
    <ele>132</ele>
    <time>2008-11-18T13:50:07Z</time>
    </trkpt>
    <trkpt lat="35.05685167" lon="32.343525">
    <ele>133</ele>
    <time>2008-11-18T13:50:21Z</time>
    </trkpt>
    <trkpt lat="35.05688833" lon="32.34358167">
    <ele>132</ele>
    <time>2008-11-18T13:50:33Z</time>
    </trkpt>
    <trkpt lat="35.056985" lon="32.34359167">
    <ele>131</ele>
    <time>2008-11-18T13:50:44Z</time>
    </trkpt>
    <trkpt lat="35.05697" lon="32.34359167">
    <ele>121</ele>
    <time>2008-11-18T13:50:56Z</time>
    </trkpt>
    <trkpt lat="35.05698833" lon="32.3436">
    <ele>116</ele>
    <time>2008-11-18T13:51:08Z</time>
    </trkpt>
    <trkpt lat="35.057085" lon="32.34363667">
    <ele>93</ele>
    <time>2008-11-18T13:51:21Z</time>
    </trkpt>
    <trkpt lat="35.05718667" lon="32.34362167">
    <ele>90</ele>
    <time>2008-11-18T13:51:32Z</time>
    </trkpt>
    <trkpt lat="35.05716333" lon="32.34367667">
    <ele>88</ele>
    <time>2008-11-18T13:52:22Z</time>
    </trkpt>
    <trkpt lat="35.05716" lon="32.34374333">
    <ele>90</ele>
    <time>2008-11-18T13:52:34Z</time>
    </trkpt>
    <trkpt lat="35.05714833" lon="32.34366167">
    <ele>98</ele>
    <time>2008-11-18T13:53:47Z</time>
    </trkpt>
    <trkpt lat="35.05714667" lon="32.34363">
    <ele>108</ele>
    <time>2008-11-18T13:55:41Z</time>
    </trkpt>
    <trkpt lat="35.05715667" lon="32.34366833">
    <ele>92</ele>
    <time>2008-11-18T13:56:23Z</time>
    </trkpt>
    <trkpt lat="35.057125" lon="32.34367">
    <ele>84</ele>
    <time>2008-11-18T13:56:35Z</time>
    </trkpt>
    <trkpt lat="35.05716833" lon="32.34366167">
    <ele>84</ele>
    <time>2008-11-18T13:57:21Z</time>
    </trkpt>
    <trkpt lat="35.05721333" lon="32.34364">
    <ele>86</ele>
    <time>2008-11-18T13:57:33Z</time>
    </trkpt>
    <trkpt lat="35.05718167" lon="32.34368167">
    <ele>84</ele>
    <time>2008-11-18T13:57:53Z</time>
    </trkpt>
    <trkpt lat="35.05716833" lon="32.34374333">
    <ele>80</ele>
    <time>2008-11-18T13:58:11Z</time>
    </trkpt>
    <trkpt lat="35.05710333" lon="32.34382">
    <ele>77</ele>
    <time>2008-11-18T13:58:25Z</time>
    </trkpt>
    <trkpt lat="35.05708833" lon="32.34393667">
    <ele>78</ele>
    <time>2008-11-18T13:58:39Z</time>
    </trkpt>
    <trkpt lat="35.05708333" lon="32.34404833">
    <ele>78</ele>
    <time>2008-11-18T13:58:51Z</time>
    </trkpt>
    <trkpt lat="35.05704333" lon="32.344145">
    <ele>79</ele>
    <time>2008-11-18T13:59:03Z</time>
    </trkpt>
    <trkpt lat="35.05711" lon="32.344325">
    <ele>93</ele>
    <time>2008-11-18T13:59:34Z</time>
    </trkpt>
    <trkpt lat="35.05708" lon="32.34434333">
    <ele>102</ele>
    <time>2008-11-18T13:59:45Z</time>
    </trkpt>
    <trkpt lat="35.057125" lon="32.344365">
    <ele>100</ele>
    <time>2008-11-18T13:59:58Z</time>
    </trkpt>
    <trkpt lat="35.05713667" lon="32.34441667">
    <ele>100</ele>
    <time>2008-11-18T14:00:18Z</time>
    </trkpt>
    <trkpt lat="35.05709" lon="32.34453333">
    <ele>102</ele>
    <time>2008-11-18T14:00:32Z</time>
    </trkpt>
    <trkpt lat="35.057085" lon="32.34466333">
    <ele>102</ele>
    <time>2008-11-18T14:00:44Z</time>
    </trkpt>
    <trkpt lat="35.05704" lon="32.344885">
    <ele>103</ele>
    <time>2008-11-18T14:00:59Z</time>
    </trkpt>
    <trkpt lat="35.05702667" lon="32.34510333">
    <ele>118</ele>
    <time>2008-11-18T14:01:10Z</time>
    </trkpt>
    <trkpt lat="35.057015" lon="32.34519667">
    <ele>119</ele>
    <time>2008-11-18T14:01:25Z</time>
    </trkpt>
    <trkpt lat="35.05701333" lon="32.34531667">
    <ele>121</ele>
    <time>2008-11-18T14:01:37Z</time>
    </trkpt>
    <trkpt lat="35.05705667" lon="32.34539667">
    <ele>114</ele>
    <time>2008-11-18T14:01:49Z</time>
    </trkpt>
    <trkpt lat="35.05698167" lon="32.345465">
    <ele>103</ele>
    <time>2008-11-18T14:02:12Z</time>
    </trkpt>
    <trkpt lat="35.05693167" lon="32.34549">
    <ele>104</ele>
    <time>2008-11-18T14:02:49Z</time>
    </trkpt>
    <trkpt lat="35.05674833" lon="32.34557667">
    <ele>87</ele>
    <time>2008-11-18T14:03:01Z</time>
    </trkpt>
    <trkpt lat="35.05662333" lon="32.34567333">
    <ele>76</ele>
    <time>2008-11-18T14:03:13Z</time>
    </trkpt>
    <trkpt lat="35.0566" lon="32.34562667">
    <ele>70</ele>
    <time>2008-11-18T14:03:25Z</time>
    </trkpt>
    <trkpt lat="35.05647333" lon="32.34551833">
    <ele>65</ele>
    <time>2008-11-18T14:03:39Z</time>
    </trkpt>
    <trkpt lat="35.05640333" lon="32.34549">
    <ele>68</ele>
    <time>2008-11-18T14:03:53Z</time>
    </trkpt>
    <trkpt lat="35.05635667" lon="32.34552167">
    <ele>68</ele>
    <time>2008-11-18T14:04:05Z</time>
    </trkpt>
    <trkpt lat="35.05628333" lon="32.34561667">
    <ele>70</ele>
    <time>2008-11-18T14:04:17Z</time>
    </trkpt>
    <trkpt lat="35.056225" lon="32.34572">
    <ele>70</ele>
    <time>2008-11-18T14:04:30Z</time>
    </trkpt>
    <trkpt lat="35.05619667" lon="32.34567833">
    <ele>69</ele>
    <time>2008-11-18T14:04:53Z</time>
    </trkpt>
    <trkpt lat="35.05614333" lon="32.34556667">
    <ele>68</ele>
    <time>2008-11-18T14:05:08Z</time>
    </trkpt>
    <trkpt lat="35.056115" lon="32.345485">
    <ele>67</ele>
    <time>2008-11-18T14:05:20Z</time>
    </trkpt>
    <trkpt lat="35.05614" lon="32.34542">
    <ele>68</ele>
    <time>2008-11-18T14:05:32Z</time>
    </trkpt>
    <trkpt lat="35.05614167" lon="32.345275">
    <ele>71</ele>
    <time>2008-11-18T14:05:44Z</time>
    </trkpt>
    <trkpt lat="35.056175" lon="32.34520667">
    <ele>67</ele>
    <time>2008-11-18T14:05:57Z</time>
    </trkpt>
    <trkpt lat="35.056155" lon="32.34509167">
    <ele>68</ele>
    <time>2008-11-18T14:06:09Z</time>
    </trkpt>
    <trkpt lat="35.05614833" lon="32.34502333">
    <ele>68</ele>
    <time>2008-11-18T14:06:20Z</time>
    </trkpt>
    <trkpt lat="35.056215" lon="32.344905">
    <ele>70</ele>
    <time>2008-11-18T14:06:32Z</time>
    </trkpt>
    <trkpt lat="35.05623" lon="32.34481">
    <ele>72</ele>
    <time>2008-11-18T14:06:45Z</time>
    </trkpt>
    <trkpt lat="35.05623333" lon="32.344745">
    <ele>74</ele>
    <time>2008-11-18T14:06:57Z</time>
    </trkpt>
    <trkpt lat="35.05630333" lon="32.34468833">
    <ele>83</ele>
    <time>2008-11-18T14:07:09Z</time>
    </trkpt>
    <trkpt lat="35.05633" lon="32.34464333">
    <ele>85</ele>
    <time>2008-11-18T14:07:21Z</time>
    </trkpt>
    <trkpt lat="35.05637333" lon="32.34461833">
    <ele>84</ele>
    <time>2008-11-18T14:07:55Z</time>
    </trkpt>
    <trkpt lat="35.05633667" lon="32.344535">
    <ele>67</ele>
    <time>2008-11-18T14:09:38Z</time>
    </trkpt>
    <trkpt lat="35.056335" lon="32.34450833">
    <ele>78</ele>
    <time>2008-11-18T14:09:55Z</time>
    </trkpt>
    <trkpt lat="35.05636667" lon="32.34442">
    <ele>72</ele>
    <time>2008-11-18T14:11:19Z</time>
    </trkpt>
    <trkpt lat="35.05635833" lon="32.3444">
    <ele>83</ele>
    <time>2008-11-18T14:11:36Z</time>
    </trkpt>
    <trkpt lat="35.05626333" lon="32.34438167">
    <ele>76</ele>
    <time>2008-11-18T14:12:04Z</time>
    </trkpt>
  </trkseg>
</trk>
<extensions>
</extensions>
</gpx>
